Time;durP1;ratioP1;P1;durP2;ratioP2;P2;SDS_P1;SDS_P2;PMS_P1;PMS_P2;Temp;Humidity;BMP_temperature;BMP_pressure;BME280_temperature;BME280_humidity;BME280_pressure;Samples;Min_cycle;Max_cycle;Signal;HPM_P1;HPM_P2
2023/01/04 00:00:33;;;;;;;4.53;1.48;;;8.30;99.90;;;;;;4230740;28;20047;-86
2023/01/04 00:02:34;;;;;;;6.63;2.05;;;8.30;99.90;;;;;;4247461;28;20406;-86
2023/01/04 00:04:35;;;;;;;2.95;1.00;;;9.30;99.90;;;;;;4265808;27;20074;-88
2023/01/04 00:06:36;;;;;;;6.57;2.78;;;8.40;99.90;;;;;;4247674;28;20043;-86
2023/01/04 00:08:37;;;;;;;7.00;1.52;;;8.30;99.90;;;;;;4230251;28;20054;-87
2023/01/04 00:10:38;;;;;;;4.15;1.55;;;;;;;;;;4247153;28;20126;-87
2023/01/04 00:12:39;;;;;;;4.28;1.23;;;;;;;;;;4246541;28;20476;-86
2023/01/04 00:14:40;;;;;;;7.80;2.03;;;;;;;;;;4218112;28;20507;-87
2023/01/04 00:16:41;;;;;;;6.65;1.80;;;8.40;99.90;;;;;;4248795;27;20177;-87
2023/01/04 00:18:42;;;;;;;3.70;1.52;;;7.90;99.90;;;;;;4230102;28;20047;-87
2023/01/04 00:20:43;;;;;;;4.90;1.50;;;8.30;99.90;;;;;;4248303;28;20380;-87
2023/01/04 00:22:45;;;;;;;7.20;1.50;;;8.40;99.90;;;;;;4249467;28;20149;-86
2023/01/04 00:24:46;;;;;;;2.65;2.05;;;8.40;99.90;;;;;;4214040;28;20055;-86
2023/01/04 00:26:47;;;;;;;3.63;1.70;;;9.00;99.90;;;;;;4233086;28;20047;-86
2023/01/04 00:28:56;;;;;;;7.47;2.05;;;7.50;99.90;;;;;;4216382;28;20050;-86
2023/01/04 00:31:02;;;;;;;5.68;2.15;;;8.30;99.90;;;;;;4260811;27;20493;-86
2023/01/04 00:33:22;;;;;;;7.80;1.92;;;;;;;;;;4269438;27;20046;-86
2023/01/04 00:35:25;;;;;;;5.30;1.45;;;8.70;99.90;;;;;;4268674;27;20053;-86
2023/01/04 00:37:26;;;;;;;4.05;1.30;;;9.10;99.90;;;;;;4268399;27;20074;-86
2023/01/04 00:39:28;;;;;;;5.40;1.60;;;9.00;99.90;;;;;;4233285;28;20048;-86
2023/01/04 00:41:29;;;;;;;10.45;2.22;;;6.00;99.90;;;;;;4233390;28;20066;-87
2023/01/04 00:43:31;;;;;;;12.00;1.98;;;7.90;99.90;;;;;;4233297;28;20099;-87
2023/01/04 00:45:33;;;;;;;2.92;1.88;;;8.60;99.90;;;;;;4268668;27;20050;-86
2023/01/04 00:47:34;;;;;;;4.57;2.05;;;8.70;99.90;;;;;;4268271;27;20076;-86
2023/01/04 00:49:36;;;;;;;4.45;1.50;;;8.80;99.90;;;;;;4269017;27;20051;-87
2023/01/04 00:51:40;;;;;;;7.18;1.90;;;8.20;99.90;;;;;;4251098;27;20075;-87
2023/01/04 00:53:41;;;;;;;6.10;1.90;;;8.40;99.90;;;;;;4250825;27;20039;-87
2023/01/04 00:55:43;;;;;;;5.80;1.92;;;8.50;99.90;;;;;;4269014;27;20399;-86
2023/01/04 00:57:45;;;;;;;8.68;2.38;;;;;;;;;;4233455;28;20377;-87
2023/01/04 00:59:48;;;;;;;5.82;2.22;;;;;;;;;;4250139;27;20517;-87
2023/01/04 01:01:50;;;;;;;3.47;1.90;;;;;;;;;;4233353;28;20051;-86
2023/01/04 01:03:55;;;;;;;3.35;1.38;;;;;;;;;;4265266;27;20101;-86
2023/01/04 01:06:07;;;;;;;8.25;1.70;;;8.00;99.90;;;;;;4250793;27;20051;-86
2023/01/04 01:08:24;;;;;;;6.32;1.90;;;9.20;99.90;;;;;;4268884;27;20030;-87
2023/01/04 01:10:26;;;;;;;5.80;2.22;;;8.40;99.90;;;;;;4268671;27;20623;-86
2023/01/04 01:12:28;;;;;;;7.65;1.83;;;8.10;99.90;;;;;;4269085;27;20047;-86
2023/01/04 01:14:29;;;;;;;3.95;1.85;;;8.10;99.90;;;;;;4268838;27;20074;-86
2023/01/04 01:16:31;;;;;;;5.85;1.60;;;8.10;99.90;;;;;;4233064;28;20044;-86
2023/01/04 01:18:33;;;;;;;5.32;1.65;;;8.00;99.90;;;;;;4249535;27;20415;-87
2023/01/04 01:20:34;;;;;;;4.32;1.92;;;8.20;99.90;;;;;;4233167;28;20039;-87
2023/01/04 01:22:35;;;;;;;3.83;2.22;;;8.40;99.90;;;;;;4268273;27;20541;-87
2023/01/04 01:24:35;;;;;;;4.95;1.73;;;6.20;99.90;;;;;;4268810;27;20039;-87
2023/01/04 01:26:36;;;;;;;5.43;1.95;;;6.80;99.90;;;;;;4249966;27;20510;-87
2023/01/04 01:28:38;;;;;;;3.03;1.70;;;7.90;99.90;;;;;;4268825;27;20117;-87
2023/01/04 01:30:42;;;;;;;4.70;1.70;;;8.10;99.90;;;;;;4268979;27;20043;-87
2023/01/04 01:32:44;;;;;;;6.55;1.67;;;8.10;99.90;;;;;;4268313;27;20031;-88
2023/01/04 01:34:46;;;;;;;4.78;1.95;;;8.10;99.90;;;;;;4232262;28;20525;-87
2023/01/04 01:36:47;;;;;;;4.28;1.48;;;8.10;99.90;;;;;;4232377;28;20039;-87
2023/01/04 01:38:48;;;;;;;4.22;1.60;;;8.40;99.90;;;;;;4249008;27;20091;-88
2023/01/04 01:40:49;;;;;;;9.18;3.35;;;8.60;99.90;;;;;;4249728;27;20050;-87
2023/01/04 01:42:49;;;;;;;4.97;2.17;;;8.60;99.90;;;;;;4264630;27;20051;-87
2023/01/04 01:44:59;;;;;;;5.43;2.00;;;8.10;99.90;;;;;;4232604;28;20043;-87
2023/01/04 01:47:01;;;;;;;8.70;2.10;;;8.40;99.90;;;;;;4215134;28;20052;-87
2023/01/04 01:49:08;;;;;;;4.88;1.50;;;8.10;99.90;;;;;;4237600;27;20479;-87
2023/01/04 01:51:10;;;;;;;2.63;1.60;;;7.90;99.90;;;;;;4251509;27;20040;-88
2023/01/04 01:53:12;;;;;;;4.60;1.77;;;7.90;99.90;;;;;;4250656;27;20123;-87
2023/01/04 01:55:14;;;;;;;6.30;1.80;;;8.10;99.90;;;;;;4250643;27;20114;-87
2023/01/04 01:57:18;;;;;;;3.28;1.25;;;8.10;99.90;;;;;;4232915;28;20044;-86
2023/01/04 01:59:20;;;;;;;3.78;2.00;;;8.00;99.90;;;;;;4251551;27;20095;-87
2023/01/04 02:01:22;;;;;;;2.63;1.40;;;8.80;99.90;;;;;;4251992;27;20403;-88
2023/01/04 02:03:29;;;;;;;3.90;1.80;;;7.90;99.90;;;;;;4233521;28;20106;-88
2023/01/04 02:05:31;;;;;;;4.03;1.70;;;8.40;99.90;;;;;;4233106;28;20055;-88
2023/01/04 02:07:35;;;;;;;2.05;1.40;;;8.30;99.90;;;;;;4257838;27;20042;-88
2023/01/04 02:09:36;;;;;;;4.05;1.42;;;;;;;;;;4249137;27;20422;-88
2023/01/04 02:11:37;;;;;;;3.78;1.55;;;7.80;99.90;;;;;;4232061;28;20150;-88
2023/01/04 02:16:23;;;;;;;5.93;2.05;;;7.90;99.90;;;;;;4248669;27;20055;-88
2023/01/04 02:18:33;;;;;;;2.20;1.20;;;8.20;99.90;;;;;;4252558;27;20053;-88
2023/01/04 02:20:45;;;;;;;1.63;1.30;;;8.00;99.90;;;;;;4267299;27;20042;-88
2023/01/04 02:23:12;;;;;;;6.85;1.70;;;8.00;99.90;;;;;;4249210;27;20402;-88
2023/01/04 02:25:31;;;;;;;4.55;1.30;;;8.00;99.90;;;;;;4248122;27;20095;-88
2023/01/04 02:27:43;;;;;;;5.00;1.50;;;8.00;99.90;;;;;;4230966;28;20039;-88
2023/01/04 02:29:52;;;;;;;3.90;1.50;;;8.00;99.90;;;;;;4248369;27;20130;-88
2023/01/04 02:31:56;;;;;;;;;;;7.80;99.90;;;;;;4232370;28;20055;-87
2023/01/04 02:34:18;;;;;;;4.97;1.10;;;9.10;99.90;;;;;;4248316;27;19926;-87
2023/01/04 02:37:00;;;;;;;3.45;0.90;;;8.20;99.90;;;;;;4250109;27;20120;-87
2023/01/04 02:39:01;;;;;;;2.72;0.90;;;;;;;;;;4266850;27;20081;-87
2023/01/04 02:41:38;;;;;;;1.70;0.90;;;7.80;99.90;;;;;;4266573;27;20047;-87
2023/01/04 02:46:18;;;;;;;3.70;1.20;;;9.20;99.90;;;;;;4267108;27;20042;-87
2023/01/04 02:50:57;;;;;;;3.42;0.85;;;8.40;99.90;;;;;;4265500;27;20047;-87
2023/01/04 02:53:09;;;;;;;1.13;0.90;;;8.20;99.90;;;;;;4231037;28;20059;-87
2023/01/04 02:55:11;;;;;;;1.23;0.70;;;8.10;99.90;;;;;;4248019;27;20051;-87
2023/01/04 02:57:27;;;;;;;0.85;0.77;;;8.00;99.90;;;;;;4248470;27;20043;-86
2023/01/04 02:59:58;;;;;;;1.80;0.80;;;8.10;99.90;;;;;;4247731;27;20043;-87
2023/01/04 03:07:59;;;;;;;2.67;0.70;;;8.70;99.90;;;;;;4266332;27;20466;-87
2023/01/04 03:10:21;;;;;;;2.13;0.70;;;8.30;99.90;;;;;;4248152;27;20039;-87
2023/01/04 03:12:32;;;;;;;1.02;0.60;;;8.30;99.90;;;;;;4230485;28;20415;-87
2023/01/04 03:14:59;;;;;;;1.90;0.90;;;8.30;99.90;;;;;;4248477;27;20507;-87
2023/01/04 03:17:04;;;;;;;2.42;0.60;;;8.40;99.90;;;;;;4246305;27;20050;-87
2023/01/04 03:19:09;;;;;;;1.90;0.77;;;;;;;;;;4249163;27;20088;-87
2023/01/04 03:21:13;;;;;;;1.80;0.60;;;8.60;99.90;;;;;;4249386;27;20552;-87
2023/01/04 03:35:44;;;;;;;1.23;0.57;;;8.40;99.90;;;;;;4249353;28;20081;-87
2023/01/04 03:43:08;;;;;;;1.38;0.75;;;7.90;99.90;;;;;;4230963;28;20128;-87
2023/01/04 03:48:29;;;;;;;0.40;0.32;;;9.70;99.90;;;;;;4267951;28;20043;-87
2023/01/04 03:50:41;;;;;;;0.38;0.30;;;8.60;99.90;;;;;;4280041;27;20019;-87
2023/01/04 03:52:46;;;;;;;0.95;0.50;;;9.00;99.90;;;;;;4251641;28;20086;-87
2023/01/04 03:54:48;;;;;;;0.50;0.50;;;8.80;99.90;;;;;;4251720;28;20036;-87
2023/01/04 03:56:51;;;;;;;1.48;0.50;;;9.70;99.90;;;;;;4274633;27;20053;-87
2023/01/04 03:58:53;;;;;;;0.43;0.40;;;9.50;99.90;;;;;;4232745;28;20035;-86
2023/01/04 04:01:02;;;;;;;1.52;0.63;;;9.60;99.90;;;;;;4250379;27;20384;-87
2023/01/04 04:03:06;;;;;;;0.40;0.30;;;9.50;99.90;;;;;;4252059;27;20080;-87
2023/01/04 04:09:50;;;;;;;2.50;0.55;;;8.90;99.90;;;;;;4252045;27;20054;-87
2023/01/04 04:11:50;;;;;;;0.68;0.35;;;9.10;99.90;;;;;;4250757;27;20100;-87
2023/01/04 04:13:51;;;;;;;1.38;0.50;;;10.00;99.90;;;;;;4251839;27;20074;-87
2023/01/04 04:15:54;;;;;;;0.50;0.50;;;9.10;99.90;;;;;;4252744;27;20604;-87
2023/01/04 04:17:55;;;;;;;3.35;0.70;;;9.10;99.90;;;;;;4234332;28;20039;-87
2023/01/04 04:19:56;;;;;;;1.25;0.50;;;9.20;99.90;;;;;;4251979;27;20572;-87
2023/01/04 04:21:58;;;;;;;0.95;0.50;;;9.30;99.90;;;;;;4250126;27;20043;-87
2023/01/04 04:23:59;;;;;;;0.80;0.57;;;9.20;99.90;;;;;;4218150;28;20074;-87
2023/01/04 04:26:01;;;;;;;1.02;0.57;;;9.30;99.90;;;;;;4234361;28;20070;-87
2023/01/04 04:28:02;;;;;;;0.77;0.47;;;9.50;99.90;;;;;;4218084;28;20054;-87
2023/01/04 04:30:03;;;;;;;0.75;0.70;;;9.30;99.90;;;;;;4235957;28;20048;-87
2023/01/04 04:32:04;;;;;;;2.47;0.70;;;9.30;99.90;;;;;;4217040;28;20512;-87
2023/01/04 04:34:05;;;;;;;2.25;0.85;;;9.40;99.90;;;;;;4216168;28;20040;-87
2023/01/04 04:36:07;;;;;;;1.10;0.70;;;9.50;99.90;;;;;;4233529;28;20075;-88
2023/01/04 04:38:08;;;;;;;1.45;0.80;;;9.50;99.90;;;;;;4234949;28;20127;-87
2023/01/04 04:41:37;;;;;;;1.63;1.10;;;9.50;99.90;;;;;;4236790;27;20495;-87
2023/01/04 04:42:30;;;;;;;1.05;0.82;;;9.60;99.90;;;;;;4216045;28;20136;-87
2023/01/04 04:44:33;;;;;;;1.67;0.90;;;9.70;99.90;;;;;;4216324;28;20544;-87
2023/01/04 04:46:34;;;;;;;2.40;0.95;;;10.20;99.90;;;;;;4215718;28;20170;-87
2023/01/04 04:48:36;;;;;;;1.40;1.02;;;9.70;99.90;;;;;;4216705;28;20052;-87
2023/01/04 04:50:37;;;;;;;1.63;0.98;;;9.80;99.90;;;;;;4216031;28;20511;-87
2023/01/04 04:52:40;;;;;;;3.33;1.70;;;9.90;99.90;;;;;;4218241;28;20047;-87
2023/01/04 04:54:42;;;;;;;1.40;0.82;;;9.90;99.90;;;;;;4216584;28;20047;-86
2023/01/04 04:56:43;;;;;;;1.23;0.88;;;9.90;99.90;;;;;;4227727;27;20142;-87
2023/01/04 04:58:44;;;;;;;2.35;0.82;;;10.00;99.90;;;;;;4250503;27;20050;-87
2023/01/04 05:00:46;;;;;;;1.15;0.95;;;10.00;99.90;;;;;;4233262;28;20052;-87
2023/01/04 05:02:46;;;;;;;1.20;0.90;;;10.00;99.90;;;;;;4250356;27;20060;-87
2023/01/04 05:04:47;;;;;;;1.65;1.25;;;10.00;99.90;;;;;;4251028;27;20103;-87
2023/01/04 05:06:49;;;;;;;1.35;0.93;;;10.00;99.90;;;;;;4250231;27;20047;-87
2023/01/04 05:08:49;;;;;;;1.30;1.20;;;10.10;99.90;;;;;;4251041;27;20035;-87
2023/01/04 05:10:51;;;;;;;3.15;1.42;;;10.10;99.90;;;;;;4232690;28;20466;-87
2023/01/04 05:12:58;;;;;;;1.88;1.30;;;10.10;99.90;;;;;;4264595;27;20121;-87
2023/01/04 05:14:59;;;;;;;1.70;1.17;;;10.20;99.90;;;;;;4232643;28;20043;-87
2023/01/04 05:17:00;;;;;;;4.50;1.25;;;10.20;99.90;;;;;;4268291;27;20045;-87
2023/01/04 05:19:00;;;;;;;1.88;1.27;;;10.20;99.90;;;;;;4268028;27;20448;-88
2023/01/04 05:21:01;;;;;;;2.95;1.02;;;10.20;99.90;;;;;;4268065;27;20042;-88
2023/01/04 05:23:02;;;;;;;1.30;1.10;;;10.20;99.90;;;;;;4268235;27;20518;-88
2023/01/04 05:25:03;;;;;;;1.20;1.00;;;10.30;99.90;;;;;;4249715;27;20051;-88
2023/01/04 05:27:04;;;;;;;1.40;1.08;;;10.30;99.90;;;;;;4232898;28;20122;-88
2023/01/04 05:29:06;;;;;;;2.40;1.20;;;10.30;99.90;;;;;;4267952;27;20078;-88
2023/01/04 05:31:06;;;;;;;1.52;1.05;;;10.30;99.90;;;;;;4250082;27;20501;-87
2023/01/04 05:33:08;;;;;;;2.65;1.38;;;10.40;99.90;;;;;;4231909;28;20040;-88
2023/01/04 05:35:09;;;;;;;3.33;1.13;;;10.30;99.90;;;;;;4249453;27;20078;-88
2023/01/04 05:37:10;;;;;;;1.63;1.02;;;10.40;99.90;;;;;;4249688;27;20039;-87
2023/01/04 05:39:11;;;;;;;1.98;1.40;;;10.40;99.90;;;;;;4267908;27;20077;-87
2023/01/04 05:43:32;;;;;;;1.38;1.20;;;10.40;99.90;;;;;;4249584;27;20063;-88
2023/01/04 05:45:32;;;;;;;1.80;1.08;;;10.40;99.90;;;;;;4267434;27;20074;-87
2023/01/04 05:47:34;;;;;;;1.35;0.82;;;10.50;99.90;;;;;;4232003;28;20047;-88
2023/01/04 05:49:35;;;;;;;1.55;1.00;;;10.40;99.90;;;;;;4249158;27;20043;-87
2023/01/04 05:51:37;;;;;;;1.73;1.13;;;10.50;99.90;;;;;;4248723;27;20506;-88
2023/01/04 05:53:37;;;;;;;4.38;1.25;;;10.40;99.90;;;;;;4249182;27;20039;-87
2023/01/04 05:55:38;;;;;;;1.30;0.90;;;10.40;99.90;;;;;;4248674;27;20130;-87
2023/01/04 05:57:39;;;;;;;1.45;0.70;;;10.40;99.90;;;;;;4267237;27;20042;-87
2023/01/04 05:59:39;;;;;;;0.95;0.80;;;10.40;99.90;;;;;;4267782;27;20046;-87
2023/01/04 06:01:40;;;;;;;2.03;0.65;;;10.40;99.90;;;;;;4266948;27;20046;-87
2023/01/04 06:03:41;;;;;;;0.55;0.55;;;10.40;99.90;;;;;;4267192;27;20038;-87
2023/01/04 06:05:48;;;;;;;0.98;0.70;;;10.40;99.90;;;;;;4232014;28;20054;-87
2023/01/04 06:07:50;;;;;;;0.80;0.52;;;10.40;99.90;;;;;;4267788;27;20051;-87
2023/01/04 06:09:55;;;;;;;0.82;0.70;;;10.40;99.90;;;;;;4249428;27;20104;-88
2023/01/04 06:11:56;;;;;;;0.60;0.60;;;10.40;99.90;;;;;;4231009;28;20385;-87
2023/01/04 06:13:58;;;;;;;1.45;0.60;;;10.40;99.90;;;;;;4267460;27;20514;-87
2023/01/04 06:15:59;;;;;;;2.13;0.60;;;10.40;99.90;;;;;;4249056;27;20599;-87
2023/01/04 06:18:00;;;;;;;1.13;0.70;;;10.40;99.90;;;;;;4249109;27;20050;-87
2023/01/04 06:20:02;;;;;;;0.82;0.60;;;10.50;99.90;;;;;;4268401;27;20046;-87
2023/01/04 06:22:03;;;;;;;0.88;0.70;;;10.50;99.90;;;;;;4249216;27;20042;-87
2023/01/04 06:24:04;;;;;;;0.95;0.77;;;10.50;99.90;;;;;;4249234;27;20468;-87
2023/01/04 06:26:04;;;;;;;0.82;0.60;;;10.50;99.90;;;;;;4266709;27;20396;-87
2023/01/04 06:28:05;;;;;;;0.88;0.80;;;10.50;99.90;;;;;;4266979;27;20049;-87
2023/01/04 06:30:06;;;;;;;1.10;0.90;;;10.50;99.90;;;;;;4248658;27;20499;-87
2023/01/04 06:32:07;;;;;;;1.33;0.82;;;10.50;99.90;;;;;;4249156;27;20461;-87
2023/01/04 06:34:11;;;;;;;1.52;0.60;;;10.50;99.90;;;;;;4266794;27;20049;-87
2023/01/04 06:36:12;;;;;;;1.17;0.80;;;10.50;99.90;;;;;;4252228;27;20047;-87
2023/01/04 06:38:13;;;;;;;1.17;0.70;;;10.50;99.90;;;;;;4266230;27;20038;-87
2023/01/04 06:40:15;;;;;;;3.22;0.60;;;10.50;99.90;;;;;;4248360;27;20106;-87
2023/01/04 06:44:35;;;;;;;1.80;0.77;;;10.60;99.90;;;;;;4266256;27;20043;-88
2023/01/04 06:46:36;;;;;;;0.70;0.40;;;10.60;99.90;;;;;;4266767;27;20042;-87
2023/01/04 06:48:36;;;;;;;0.75;0.60;;;10.60;99.90;;;;;;4267772;27;20502;-87
2023/01/04 06:50:37;;;;;;;1.55;0.60;;;10.60;99.90;;;;;;4250119;27;20834;-87
2023/01/04 06:52:38;;;;;;;3.83;0.40;;;10.60;99.90;;;;;;4254961;27;20083;-87
2023/01/04 06:54:39;;;;;;;1.05;0.47;;;10.60;99.90;;;;;;4235812;28;20054;-87
2023/01/04 06:56:39;;;;;;;0.63;0.40;;;10.60;99.90;;;;;;4271776;27;20100;-88
2023/01/04 06:58:40;;;;;;;2.60;0.77;;;10.60;99.90;;;;;;4273159;27;20525;-88
2023/01/04 07:00:41;;;;;;;0.75;0.45;;;10.60;99.90;;;;;;4234096;28;20108;-87
2023/01/04 07:02:42;;;;;;;0.55;0.50;;;10.60;99.90;;;;;;4247435;27;20479;-88
2023/01/04 07:04:43;;;;;;;0.88;0.60;;;10.60;99.90;;;;;;4230288;28;20412;-88
2023/01/04 07:06:43;;;;;;;2.83;0.75;;;10.60;99.90;;;;;;4230302;28;20101;-87
2023/01/04 07:08:44;;;;;;;1.42;0.50;;;10.60;99.90;;;;;;4229891;28;20055;-87
2023/01/04 07:10:45;;;;;;;1.58;0.70;;;10.70;99.90;;;;;;4265588;27;20570;-86
2023/01/04 07:12:47;;;;;;;1.33;0.57;;;10.70;99.90;;;;;;4263182;27;20452;-88
2023/01/04 07:14:48;;;;;;;5.63;0.63;;;10.70;99.90;;;;;;4219590;28;20077;-87
2023/01/04 07:16:48;;;;;;;2.42;0.65;;;10.70;99.90;;;;;;4266053;27;20049;-86
2023/01/04 07:18:49;;;;;;;0.88;0.43;;;10.70;99.90;;;;;;4228809;28;20519;-87
2023/01/04 07:20:50;;;;;;;3.15;0.50;;;10.70;99.90;;;;;;4266834;27;20034;-87
2023/01/04 07:22:51;;;;;;;2.85;0.75;;;10.70;99.90;;;;;;4265729;27;20486;-88
2023/01/04 07:24:52;;;;;;;2.70;1.23;;;10.70;99.90;;;;;;4266056;27;20102;-87
2023/01/04 07:26:53;;;;;;;4.85;0.98;;;10.70;99.90;;;;;;4256069;27;20074;-87
2023/01/04 07:31:13;;;;;;;2.05;1.10;;;10.70;99.90;;;;;;4255288;27;20078;-87
2023/01/04 07:33:14;;;;;;;4.70;1.30;;;10.70;99.90;;;;;;4243348;27;20043;-86
2023/01/04 07:35:15;;;;;;;1.90;1.02;;;10.70;99.90;;;;;;4249054;27;20039;-86
2023/01/04 07:37:16;;;;;;;2.92;1.00;;;10.50;99.90;;;;;;4214243;28;20408;-87
2023/01/04 07:39:17;;;;;;;4.18;1.05;;;10.50;99.90;;;;;;4230689;28;20487;-87
2023/01/04 07:41:18;;;;;;;2.50;0.93;;;10.70;99.90;;;;;;4214475;28;20079;-86
2023/01/04 07:43:19;;;;;;;3.47;0.93;;;10.70;99.90;;;;;;4231034;28;20487;-87
2023/01/04 07:45:19;;;;;;;2.20;0.95;;;10.70;99.90;;;;;;4247990;28;20578;-87
2023/01/04 07:47:20;;;;;;;5.32;0.90;;;10.70;99.90;;;;;;4230660;28;20490;-87
2023/01/04 07:49:21;;;;;;;4.90;0.90;;;10.70;99.90;;;;;;4248621;28;20042;-87
2023/01/04 07:51:23;;;;;;;4.68;0.70;;;10.70;99.90;;;;;;4248810;27;20031;-87
2023/01/04 07:53:23;;;;;;;2.05;0.63;;;10.70;99.90;;;;;;4230638;28;20121;-87
2023/01/04 07:55:24;;;;;;;2.17;0.70;;;10.70;99.90;;;;;;4252803;27;20047;-87
2023/01/04 07:57:25;;;;;;;1.55;0.70;;;10.70;99.90;;;;;;4249187;27;20051;-87
2023/01/04 07:59:25;;;;;;;3.60;0.60;;;10.70;99.90;;;;;;4253032;27;20126;-87
2023/01/04 08:01:27;;;;;;;2.58;0.60;;;10.70;99.90;;;;;;4230846;28;20434;-86
2023/01/04 08:03:29;;;;;;;4.55;0.65;;;10.70;99.90;;;;;;4252857;27;20045;-87
2023/01/04 08:05:34;;;;;;;1.83;0.60;;;10.70;99.90;;;;;;4230308;28;20039;-86
2023/01/04 08:07:34;;;;;;;2.95;1.08;;;10.70;99.90;;;;;;4218689;28;20039;-86
2023/01/04 08:09:35;;;;;;;1.90;0.60;;;10.70;99.90;;;;;;4266375;27;20509;-86
2023/01/04 08:11:36;;;;;;;1.95;0.57;;;10.70;99.90;;;;;;4230829;28;20052;-87
2023/01/04 08:13:38;;;;;;;1.40;0.85;;;10.70;99.90;;;;;;4247277;28;20098;-87
2023/01/04 08:15:38;;;;;;;2.45;0.57;;;10.70;99.90;;;;;;4247479;28;20161;-87
2023/01/04 08:17:39;;;;;;;4.32;0.63;;;10.70;99.90;;;;;;4247399;28;20035;-87
2023/01/04 08:19:40;;;;;;;3.75;0.60;;;10.70;99.90;;;;;;4261317;27;20110;-87
2023/01/04 08:21:41;;;;;;;0.80;0.60;;;10.70;99.90;;;;;;4249355;27;20035;-86
2023/01/04 08:23:41;;;;;;;2.50;0.80;;;10.70;99.90;;;;;;4222440;28;20393;-87
2023/01/04 08:25:42;;;;;;;0.95;0.45;;;10.70;99.90;;;;;;4226476;28;20095;-87
2023/01/04 08:27:44;;;;;;;2.92;0.60;;;10.70;99.90;;;;;;4256300;27;20463;-86
2023/01/04 08:29:45;;;;;;;3.40;0.60;;;10.70;99.90;;;;;;4232823;28;20040;-86
2023/01/04 08:31:47;;;;;;;1.75;0.55;;;10.70;99.90;;;;;;4248678;27;20040;-87
2023/01/04 08:33:49;;;;;;;7.60;0.60;;;10.70;99.90;;;;;;4248710;28;20912;-87
2023/01/04 08:35:50;;;;;;;1.42;0.35;;;10.70;99.90;;;;;;4248365;27;20047;-87
2023/01/04 08:37:51;;;;;;;4.20;1.17;;;10.70;99.90;;;;;;4253233;27;20046;-87
2023/01/04 08:39:52;;;;;;;1.23;0.43;;;10.70;99.90;;;;;;4248044;28;20056;-87
2023/01/04 08:41:53;;;;;;;0.98;0.40;;;10.70;99.90;;;;;;4239500;28;20063;-87
2023/01/04 08:43:53;;;;;;;2.90;0.98;;;10.70;99.90;;;;;;4213507;28;20488;-87
2023/01/04 08:45:54;;;;;;;0.68;0.60;;;10.70;99.90;;;;;;4262182;27;20042;-87
2023/01/04 08:47:55;;;;;;;3.03;0.68;;;10.70;99.90;;;;;;4219975;28;20052;-87
2023/01/04 08:49:57;;;;;;;2.28;0.38;;;10.70;99.90;;;;;;4247170;27;20438;-88
2023/01/04 08:52:00;;;;;;;1.67;0.68;;;10.70;99.90;;;;;;4268328;27;20085;-87
2023/01/04 08:54:00;;;;;;;3.17;0.60;;;10.70;99.90;;;;;;4268011;27;20042;-87
2023/01/04 08:56:02;;;;;;;1.02;0.47;;;10.70;99.90;;;;;;4232497;28;20044;-87
2023/01/04 08:58:04;;;;;;;1.67;0.45;;;10.70;99.90;;;;;;4231844;28;20051;-87
2023/01/04 09:00:06;;;;;;;0.65;0.38;;;10.70;99.90;;;;;;4248553;27;20112;-87
2023/01/04 09:02:24;;;;;;;0.93;0.38;;;10.70;99.90;;;;;;4249168;27;20047;-87
2023/01/04 09:04:25;;;;;;;1.23;0.40;;;10.70;99.90;;;;;;4248820;27;20039;-88
2023/01/04 09:06:27;;;;;;;2.15;0.40;;;10.70;99.90;;;;;;4247668;27;20116;-87
2023/01/04 09:08:30;;;;;;;3.83;0.43;;;10.70;99.90;;;;;;4242900;27;20039;-87
2023/01/04 09:10:31;;;;;;;3.40;0.40;;;10.70;99.90;;;;;;4250609;27;20043;-88
2023/01/04 09:12:31;;;;;;;2.85;0.60;;;10.80;99.90;;;;;;4250920;27;20119;-87
2023/01/04 09:14:32;;;;;;;2.25;0.50;;;10.70;99.90;;;;;;4232886;28;20055;-88
2023/01/04 09:16:34;;;;;;;5.13;0.60;;;10.70;99.90;;;;;;4231835;28;20104;-88
2023/01/04 09:18:35;;;;;;;2.38;0.80;;;10.80;99.90;;;;;;4215558;28;20186;-88
2023/01/04 09:20:37;;;;;;;5.45;1.00;;;10.70;99.90;;;;;;4234516;27;20107;-88
2023/01/04 09:22:37;;;;;;;2.30;0.65;;;10.80;99.90;;;;;;4268081;27;20478;-88
2023/01/04 09:24:38;;;;;;;6.00;1.13;;;10.80;99.90;;;;;;4232973;28;20116;-88
2023/01/04 09:26:39;;;;;;;5.63;1.08;;;10.80;99.90;;;;;;4250230;27;20522;-88
2023/01/04 09:28:54;;;;;;;1.63;0.75;;;10.80;99.90;;;;;;4250270;27;20390;-87
2023/01/04 09:31:18;;;;;;;1.52;0.82;;;10.80;99.90;;;;;;4250238;27;20075;-88
2023/01/04 09:33:53;;;;;;;6.65;1.52;;;10.80;99.90;;;;;;4249803;27;20042;-88
2023/01/04 09:36:20;;;;;;;5.28;1.17;;;10.80;99.90;;;;;;4270304;27;20047;-87
2023/01/04 09:38:57;;;;;;;5.72;1.55;;;10.80;99.90;;;;;;4269975;27;20039;-87
2023/01/04 09:41:33;;;;;;;3.90;1.27;;;10.80;99.90;;;;;;4252736;28;20071;-86
2023/01/04 09:46:56;;;;;;;8.73;1.88;;;10.80;99.90;;;;;;4282490;27;20055;-89
2023/01/04 09:49:23;;;;;;;6.10;1.95;;;10.90;99.90;;;;;;4266988;27;20046;-89
2023/01/04 09:51:30;;;;;;;5.90;1.70;;;10.90;99.90;;;;;;4282668;27;20047;-89
2023/01/04 09:53:34;;;;;;;8.60;2.03;;;10.90;99.90;;;;;;4284253;27;20041;-88
2023/01/04 09:55:46;;;;;;;7.47;1.83;;;10.90;99.90;;;;;;4264263;27;20085;-88
2023/01/04 09:58:01;;;;;;;5.50;1.40;;;10.90;99.90;;;;;;4249837;27;20571;-88
2023/01/04 10:00:20;;;;;;;5.75;1.35;;;11.00;99.90;;;;;;4233262;28;20051;-88
2023/01/04 10:02:28;;;;;;;8.30;2.13;;;10.90;99.90;;;;;;4250208;27;20133;-88
2023/01/04 10:04:43;;;;;;;9.45;2.03;;;11.00;99.90;;;;;;4232251;28;20040;-88
2023/01/04 10:06:44;;;;;;;10.73;2.25;;;11.00;99.90;;;;;;4248826;27;20112;-87
2023/01/04 10:08:46;;;;;;;4.80;1.88;;;11.10;99.90;;;;;;4249712;27;20074;-85
2023/01/04 10:10:53;;;;;;;8.65;1.50;;;11.30;99.90;;;;;;4267358;27;20109;-87
2023/01/04 10:13:16;;;;;;;8.10;2.10;;;11.10;99.90;;;;;;4267697;27;20058;-86
2023/01/04 10:15:50;;;;;;;11.10;3.10;;;11.10;99.90;;;;;;4250748;27;20466;-87
2023/01/04 10:18:03;;;;;;;10.70;1.77;;;11.20;99.90;;;;;;4250254;27;20046;-87
2023/01/04 10:20:17;;;;;;;8.32;2.13;;;11.20;99.90;;;;;;4233605;28;20130;-87
2023/01/04 10:22:40;;;;;;;13.30;2.13;;;11.20;99.90;;;;;;4249121;27;20039;-87
2023/01/04 10:24:48;;;;;;;11.70;2.45;;;11.30;99.90;;;;;;4249487;27;20058;-87
2023/01/04 10:26:54;;;;;;;9.55;2.90;;;11.30;99.90;;;;;;4267483;27;20042;-87
2023/01/04 10:29:15;;;;;;;11.73;2.40;;;11.30;99.90;;;;;;4253738;27;20076;-86
2023/01/04 10:31:27;;;;;;;14.02;1.67;;;11.40;99.90;;;;;;4248942;27;20507;-87
2023/01/04 10:33:43;;;;;;;13.93;2.47;;;11.40;99.90;;;;;;4231561;28;20043;-88
2023/01/04 10:35:45;;;;;;;12.07;1.80;;;11.40;99.90;;;;;;4248231;27;20529;-87
2023/01/04 10:37:51;;;;;;;15.00;2.53;;;11.50;99.90;;;;;;4248897;27;20116;-87
2023/01/04 10:39:56;;;;;;;17.42;3.67;;;11.50;99.90;;;;;;4266926;27;20046;-88
2023/01/04 10:42:02;;;;;;;10.15;1.30;;;11.50;99.90;;;;;;4247902;27;20092;-87
2023/01/04 10:44:36;;;;;;;12.30;2.38;;;11.60;99.90;;;;;;4248300;27;20057;-87
2023/01/04 10:47:07;;;;;;;20.25;2.70;;;11.60;99.90;;;;;;4236662;27;20047;-88
2023/01/04 10:49:22;;;;;;;8.07;1.70;;;11.30;99.90;;;;;;4147659;28;20053;-88
2023/01/04 10:51:42;;;;;;;11.43;1.67;;;11.70;99.90;;;;;;4231343;28;20085;-87
2023/01/04 10:53:50;;;;;;;15.63;2.45;;;11.70;99.90;;;;;;4231330;28;20044;-87
2023/01/04 10:56:03;;;;;;;21.42;2.50;;;11.70;99.90;;;;;;4230973;28;20148;-87
2023/01/04 10:58:30;;;;;;;14.80;2.60;;;11.70;99.90;;;;;;4232019;28;20056;-87
2023/01/04 11:00:43;;;;;;;14.05;1.83;;;11.80;99.90;;;;;;4232367;28;20048;-88
2023/01/04 11:02:49;;;;;;;20.35;3.25;;;11.80;99.90;;;;;;4230756;28;20043;-87
2023/01/04 11:05:15;;;;;;;18.40;2.55;;;11.90;99.90;;;;;;4231638;28;20043;-88
2023/01/04 11:07:57;;;;;;;20.23;2.75;;;11.90;99.90;;;;;;4220437;28;20062;-87
2023/01/04 11:10:16;;;;;;;12.55;2.67;;;11.90;99.90;;;;;;4179917;28;20052;-87
2023/01/04 11:12:20;;;;;;;20.38;4.43;;;11.90;99.90;;;;;;4217642;28;20485;-86
2023/01/04 11:14:23;;;;;;;17.05;3.20;;;12.10;99.90;;;;;;4230693;28;20051;-87
2023/01/04 11:16:26;;;;;;;11.90;2.75;;;12.00;99.90;;;;;;4230794;28;20060;-87
2023/01/04 11:18:29;;;;;;;21.75;3.38;;;12.10;99.90;;;;;;4233204;28;20047;-87
2023/01/04 11:20:31;;;;;;;26.52;2.85;;;12.10;99.90;;;;;;4233120;28;20467;-87
2023/01/04 11:23:14;;;;;;;18.20;3.30;;;12.20;99.90;;;;;;4231344;28;20047;-87
2023/01/04 11:25:19;;;;;;;15.45;3.90;;;12.20;99.90;;;;;;4203360;28;20493;-87
2023/01/04 11:27:28;;;;;;;11.02;1.70;;;12.10;99.90;;;;;;4247106;27;20050;-88
2023/01/04 11:29:32;;;;;;;15.05;2.22;;;12.10;99.90;;;;;;4246515;27;20051;-86
2023/01/04 11:31:56;;;;;;;16.75;2.08;;;12.20;99.90;;;;;;4247864;27;20461;-87
2023/01/04 11:34:00;;;;;;;15.98;2.63;;;12.10;99.90;;;;;;4217851;28;20572;-88
2023/01/04 11:36:02;;;;;;;19.90;3.60;;;12.20;99.90;;;;;;4247750;28;20043;-88
2023/01/04 11:38:29;;;;;;;19.13;3.17;;;12.40;99.90;;;;;;4250133;28;20506;-87
2023/01/04 11:40:30;;;;;;;12.18;1.83;;;12.40;99.90;;;;;;4228342;28;20048;-86
2023/01/04 11:42:31;;;;;;;6.38;1.20;;;12.30;99.90;;;;;;4249286;28;20087;-87
2023/01/04 11:44:34;;;;;;;8.15;2.13;;;12.30;99.90;;;;;;4214644;28;20480;-88
2023/01/04 11:46:35;;;;;;;10.77;1.73;;;12.20;99.90;;;;;;4213675;28;20052;-88